METAR Data
IDs: Format: Raw Decoded Include TAF

Data at: 2303 UTC 26 Feb 2020

Region: TOP
KATL 262252Z 28015G21KT 10SM SCT028 BKN035 BKN080 BKN200 09/03 A2994 RMK AO2 PK WND 28026/2214 SLP140 T00890028

KBOS 262254Z 05010KT 1/4SM R04R/P6000FT FG OVC002 07/04 A2997 RMK AO2 SFC VIS 1/2 SLP149 T00670044

KBWI 262254Z 09010KT 8SM OVC006 09/07 A2973 RMK AO2 SLP069 T00940072

KCLE 262251Z 33012KT 1/2SM SN FG OVC004 01/M01 A2972 RMK AO2 SLP070 P0005 T00061006

KCLT 262252Z 21011G22KT 10SM FEW031 BKN100 BKN210 14/08 A2971 RMK AO2 SLP059 T01440078

KCVG 262252Z 29014KT 6SM -SN FEW017 BKN026 OVC055 00/M03 A2988 RMK AO2 SLP122 P0000 T00001028

KDCA 262252Z 11006KT 2SM BR OVC005 10/09 A2974 RMK AO2 SLP070 T01000094

KDEN 262253Z 07008KT 10SM FEW100 SCT150 BKN220 04/M11 A3017 RMK AO2 SLP241 T00441106

KDFW 262253Z 34019G25KT 10SM FEW060 09/M07 A3036 RMK AO2 PK WND 33029/2216 SLP282 T00891072

KDTW 262253Z 34010KT 1/2SM R03R/4000V5000FT SN FZFG SCT009 OVC014 M03/M03 A2982 RMK AO2 SLP106 P0004 T10281033

KEWR 262251Z 10006KT 10SM BKN008 OVC012 08/06 A2984 RMK AO2 SLP103 T00830061

KFLL 262253Z 19011KT 10SM SCT028 BKN095 BKN170 BKN250 27/22 A2989 RMK AO2 SLP121 T02670217

KIAD 262252Z 12008KT 2SM -DZ OVC005 10/09 A2971 RMK AO2 RAB04E16DZB19 SLP062 P0000 T01000089

KIAH 262253Z 35015G21KT 10SM FEW055 12/M03 A3033 RMK AO2 PK WND 34027/2204 SLP270 T01171028

KJFK 262251Z 08010KT 10SM SCT008 OVC015 07/07 A2986 RMK AO2 SLP110 T00720067

KLAS 262256Z 01003KT 10SM CLR 17/M11 A3036 RMK AO2 SLP276 T01671111

KLAX 262253Z 26013KT 10SM SCT250 23/01 A3020 RMK AO2 SLP226 T02280006

KLGA 262251Z 05007KT 10SM OVC013 07/04 A2985 RMK AO2 SLP109 T00720044 $

KMCO 262253Z 33010KT 10SM FEW012 BKN045 OVC060 19/16 A2994 RMK AO2 RAE2154B10E28 SLP137 P0000 T01890161

KMDW 262253Z 33018G25KT 10SM -SN SCT030 OVC045 M02/M08 A3007 RMK AO2 SLP195 P0000 T10171083

KMEM 262254Z 33011G23KT 10SM OVC039 04/M02 A3020 RMK AO2 SLP227 T00441022

KMIA 262253Z 19010KT 6SM R09/5000VP6000FT -RA BR SCT025CB BKN060 OVC100 24/21 A2991 RMK AO2 RAB33 SLP128 CB NE-SE-SW MOV NE P0003 T02440206 $

KMSP 262253Z 31009KT 10SM BKN060 OVC250 M02/M12 A3021 RMK AO2 SLP244 T10221117

KORD 262251Z 33013G23KT 10SM -SN OVC032 M02/M08 A3007 RMK AO2 PK WND 34026/2212 SLP189 P0000 T10171083

KPDX 262253Z 00000KT 10SM FEW025 FEW040 SCT250 13/04 A3052 RMK AO2 SLP333 T01330039

KPHL 262254Z 10010KT 10SM OVC012 09/06 A2980 RMK AO2 SLP091 T00940061

KPHX 262251Z 05005KT 10SM CLR 18/M12 A3026 RMK AO2 SLP240 T01831117 $

KPIT 262251Z 03005KT 9SM -RA FEW009 BKN048 OVC060 06/05 A2959 RMK AO2 SLP031 P0004 T00610050

KSAN 262251Z 24007KT 10SM SCT250 25/M06 A3018 RMK AO2 SLP219 T02501061

KSEA 262253Z 20006KT 10SM SCT028 SCT250 11/05 A3052 RMK AO2 SLP342 T01060050

KSFO 262256Z 02004KT 10SM FEW200 19/10 A3027 RMK AO2 SLP250 T01940100

KSLC 262254Z VRB03KT 10SM BKN095 BKN140 BKN230 09/M10 A3039 RMK AO2 SLP299 ACSL S T00891100

KSTL 262251Z 31014KT 10SM FEW039 BKN055 02/M06 A3019 RMK AO2 SLP234 VCSH S-W T00171061

KTPA 262253Z VRB05KT 10SM -RA OVC065 18/17 A2995 RMK AO2 RAB2159 SLP142 P0003 T01830167 $